sensor_id;sensor_type;location;lat;lon;timestamp;P1;durP1;ratioP1;P2;durP2;ratioP2
67503;SDS011;54351;49.108;1.502;2022-09-09T00:00:22;382.10;;;351.67;;
67503;SDS011;54351;49.108;1.502;2022-09-09T00:02:59;408.20;;;375.73;;
67503;SDS011;54351;49.108;1.502;2022-09-09T00:05:38;369.95;;;340.25;;
67503;SDS011;54351;49.108;1.502;2022-09-09T00:08:11;395.23;;;364.00;;
67503;SDS011;54351;49.108;1.502;2022-09-09T00:10:40;388.08;;;355.88;;
67503;SDS011;54351;49.108;1.502;2022-09-09T00:15:38;366.45;;;336.13;;
67503;SDS011;54351;49.108;1.502;2022-09-09T00:18:08;392.40;;;360.48;;
67503;SDS011;54351;49.108;1.502;2022-09-09T00:20:38;386.60;;;353.88;;
67503;SDS011;54351;49.108;1.502;2022-09-09T00:23:12;386.35;;;354.83;;
67503;SDS011;54351;49.108;1.502;2022-09-09T00:26:00;436.77;;;402.13;;
67503;SDS011;54351;49.108;1.502;2022-09-09T00:28:28;423.13;;;389.23;;
67503;SDS011;54351;49.108;1.502;2022-09-09T00:30:59;389.85;;;357.42;;
67503;SDS011;54351;49.108;1.502;2022-09-09T00:33:26;415.95;;;383.05;;
67503;SDS011;54351;49.108;1.502;2022-09-09T00:35:59;425.58;;;392.27;;
67503;SDS011;54351;49.108;1.502;2022-09-09T00:38:36;409.70;;;378.63;;
67503;SDS011;54351;49.108;1.502;2022-09-09T00:41:09;398.38;;;367.02;;
67503;SDS011;54351;49.108;1.502;2022-09-09T00:43:38;428.52;;;395.27;;
67503;SDS011;54351;49.108;1.502;2022-09-09T00:51:13;392.20;;;360.90;;
67503;SDS011;54351;49.108;1.502;2022-09-09T00:57:12;464.70;;;429.83;;
67503;SDS011;54351;49.108;1.502;2022-09-09T01:01:38;480.20;;;444.40;;
67503;SDS011;54351;49.108;1.502;2022-09-09T01:04:05;455.63;;;420.60;;
67503;SDS011;54351;49.108;1.502;2022-09-09T01:06:34;490.23;;;453.83;;
67503;SDS011;54351;49.108;1.502;2022-09-09T01:12:11;486.17;;;450.30;;
67503;SDS011;54351;49.108;1.502;2022-09-09T01:19:44;448.60;;;414.73;;
67503;SDS011;54351;49.108;1.502;2022-09-09T01:27:31;453.20;;;418.70;;
67503;SDS011;54351;49.108;1.502;2022-09-09T01:29:58;470.58;;;434.60;;
67503;SDS011;54351;49.108;1.502;2022-09-09T01:32:41;459.67;;;422.77;;
67503;SDS011;54351;49.108;1.502;2022-09-09T01:35:10;434.33;;;401.75;;
67503;SDS011;54351;49.108;1.502;2022-09-09T01:37:37;432.60;;;398.60;;
67503;SDS011;54351;49.108;1.502;2022-09-09T01:40:03;459.40;;;425.67;;
67503;SDS011;54351;49.108;1.502;2022-09-09T01:42:29;423.02;;;390.83;;
67503;SDS011;54351;49.108;1.502;2022-09-09T01:44:55;452.13;;;418.90;;
67503;SDS011;54351;49.108;1.502;2022-09-09T01:47:22;432.13;;;400.75;;
67503;SDS011;54351;49.108;1.502;2022-09-09T01:49:48;477.50;;;442.65;;
67503;SDS011;54351;49.108;1.502;2022-09-09T01:52:14;477.13;;;443.55;;
67503;SDS011;54351;49.108;1.502;2022-09-09T01:54:40;458.58;;;426.55;;
67503;SDS011;54351;49.108;1.502;2022-09-09T02:05:25;471.90;;;439.30;;
67503;SDS011;54351;49.108;1.502;2022-09-09T02:07:47;454.45;;;423.00;;
67503;SDS011;54351;49.108;1.502;2022-09-09T02:10:20;473.38;;;440.75;;
67503;SDS011;54351;49.108;1.502;2022-09-09T02:12:53;403.65;;;377.25;;
67503;SDS011;54351;49.108;1.502;2022-09-09T02:15:34;445.73;;;415.60;;
67503;SDS011;54351;49.108;1.502;2022-09-09T02:18:01;457.08;;;426.60;;
67503;SDS011;54351;49.108;1.502;2022-09-09T02:20:31;446.88;;;415.70;;
67503;SDS011;54351;49.108;1.502;2022-09-09T02:22:58;434.33;;;404.60;;
67503;SDS011;54351;49.108;1.502;2022-09-09T02:25:26;447.60;;;416.52;;
67503;SDS011;54351;49.108;1.502;2022-09-09T02:27:54;424.70;;;396.38;;
67503;SDS011;54351;49.108;1.502;2022-09-09T02:30:23;437.00;;;407.73;;
67503;SDS011;54351;49.108;1.502;2022-09-09T02:32:49;464.02;;;432.38;;
67503;SDS011;54351;49.108;1.502;2022-09-09T02:35:17;437.52;;;408.73;;
67503;SDS011;54351;49.108;1.502;2022-09-09T02:37:45;436.42;;;407.55;;
67503;SDS011;54351;49.108;1.502;2022-09-09T02:40:12;428.27;;;399.60;;
67503;SDS011;54351;49.108;1.502;2022-09-09T02:42:44;409.80;;;382.98;;
67503;SDS011;54351;49.108;1.502;2022-09-09T02:45:11;430.92;;;402.63;;
67503;SDS011;54351;49.108;1.502;2022-09-09T02:47:39;426.35;;;397.95;;
67503;SDS011;54351;49.108;1.502;2022-09-09T02:50:17;425.60;;;398.05;;
67503;SDS011;54351;49.108;1.502;2022-09-09T02:55:16;378.63;;;354.30;;
67503;SDS011;54351;49.108;1.502;2022-09-09T02:57:43;465.50;;;434.15;;
67503;SDS011;54351;49.108;1.502;2022-09-09T03:00:12;436.42;;;407.08;;
67503;SDS011;54351;49.108;1.502;2022-09-09T03:02:38;492.77;;;459.42;;
67503;SDS011;54351;49.108;1.502;2022-09-09T03:05:05;466.40;;;434.52;;
67503;SDS011;54351;49.108;1.502;2022-09-09T03:07:31;490.65;;;456.98;;
67503;SDS011;54351;49.108;1.502;2022-09-09T03:09:58;507.83;;;472.73;;
67503;SDS011;54351;49.108;1.502;2022-09-09T03:12:24;480.08;;;447.65;;
67503;SDS011;54351;49.108;1.502;2022-09-09T03:14:51;365.88;;;341.55;;
67503;SDS011;54351;49.108;1.502;2022-09-09T03:17:17;480.90;;;448.05;;
67503;SDS011;54351;49.108;1.502;2022-09-09T03:19:43;499.45;;;465.23;;
67503;SDS011;54351;49.108;1.502;2022-09-09T03:22:10;491.88;;;457.95;;
67503;SDS011;54351;49.108;1.502;2022-09-09T03:24:36;478.83;;;445.25;;
67503;SDS011;54351;49.108;1.502;2022-09-09T03:27:03;499.75;;;464.90;;
67503;SDS011;54351;49.108;1.502;2022-09-09T03:29:29;494.05;;;459.88;;
67503;SDS011;54351;49.108;1.502;2022-09-09T03:31:59;502.00;;;467.73;;
67503;SDS011;54351;49.108;1.502;2022-09-09T03:34:25;499.63;;;464.85;;
67503;SDS011;54351;49.108;1.502;2022-09-09T03:36:52;493.50;;;459.95;;
67503;SDS011;54351;49.108;1.502;2022-09-09T03:39:18;484.73;;;451.33;;
67503;SDS011;54351;49.108;1.502;2022-09-09T03:41:44;414.88;;;386.80;;
67503;SDS011;54351;49.108;1.502;2022-09-09T03:44:11;494.77;;;460.13;;
67503;SDS011;54351;49.108;1.502;2022-09-09T03:46:37;462.58;;;431.80;;
67503;SDS011;54351;49.108;1.502;2022-09-09T03:49:03;518.72;;;483.08;;
67503;SDS011;54351;49.108;1.502;2022-09-09T03:51:31;475.58;;;443.17;;
67503;SDS011;54351;49.108;1.502;2022-09-09T03:54:01;448.97;;;419.40;;
67503;SDS011;54351;49.108;1.502;2022-09-09T03:56:30;433.40;;;404.40;;
67503;SDS011;54351;49.108;1.502;2022-09-09T03:58:56;447.92;;;418.25;;
67503;SDS011;54351;49.108;1.502;2022-09-09T04:01:23;405.60;;;379.17;;
67503;SDS011;54351;49.108;1.502;2022-09-09T04:03:49;343.15;;;320.33;;
67503;SDS011;54351;49.108;1.502;2022-09-09T04:06:18;453.17;;;422.67;;
67503;SDS011;54351;49.108;1.502;2022-09-09T04:08:46;361.43;;;337.43;;
67503;SDS011;54351;49.108;1.502;2022-09-09T04:11:17;383.52;;;358.17;;
67503;SDS011;54351;49.108;1.502;2022-09-09T04:13:43;374.48;;;349.05;;
67503;SDS011;54351;49.108;1.502;2022-09-09T04:16:10;353.10;;;330.15;;
67503;SDS011;54351;49.108;1.502;2022-09-09T04:18:36;293.15;;;273.65;;
67503;SDS011;54351;49.108;1.502;2022-09-09T04:21:02;363.65;;;339.23;;
67503;SDS011;54351;49.108;1.502;2022-09-09T04:23:30;446.58;;;417.02;;
67503;SDS011;54351;49.108;1.502;2022-09-09T04:25:56;488.63;;;455.40;;
67503;SDS011;54351;49.108;1.502;2022-09-09T04:28:23;488.58;;;456.13;;
67503;SDS011;54351;49.108;1.502;2022-09-09T04:30:49;456.63;;;426.30;;
67503;SDS011;54351;49.108;1.502;2022-09-09T04:33:16;453.75;;;423.60;;
67503;SDS011;54351;49.108;1.502;2022-09-09T04:35:46;387.20;;;361.65;;
67503;SDS011;54351;49.108;1.502;2022-09-09T04:38:13;481.97;;;449.17;;
67503;SDS011;54351;49.108;1.502;2022-09-09T04:40:42;423.38;;;395.35;;
67503;SDS011;54351;49.108;1.502;2022-09-09T04:43:08;492.38;;;458.08;;
67503;SDS011;54351;49.108;1.502;2022-09-09T04:45:35;434.30;;;405.58;;
67503;SDS011;54351;49.108;1.502;2022-09-09T04:48:02;428.08;;;399.90;;
67503;SDS011;54351;49.108;1.502;2022-09-09T04:50:29;451.48;;;421.05;;
67503;SDS011;54351;49.108;1.502;2022-09-09T04:52:55;364.83;;;340.83;;
67503;SDS011;54351;49.108;1.502;2022-09-09T04:55:21;498.08;;;464.85;;
67503;SDS011;54351;49.108;1.502;2022-09-09T04:57:47;477.50;;;446.02;;
67503;SDS011;54351;49.108;1.502;2022-09-09T05:00:13;448.15;;;418.15;;
67503;SDS011;54351;49.108;1.502;2022-09-09T05:02:39;489.63;;;456.40;;
67503;SDS011;54351;49.108;1.502;2022-09-09T05:05:07;531.95;;;494.63;;
67503;SDS011;54351;49.108;1.502;2022-09-09T05:07:33;510.55;;;475.38;;
67503;SDS011;54351;49.108;1.502;2022-09-09T05:09:59;530.65;;;493.75;;
67503;SDS011;54351;49.108;1.502;2022-09-09T05:12:26;471.38;;;439.85;;
67503;SDS011;54351;49.108;1.502;2022-09-09T05:14:52;491.13;;;458.08;;
67503;SDS011;54351;49.108;1.502;2022-09-09T05:17:18;429.27;;;401.20;;
67503;SDS011;54351;49.108;1.502;2022-09-09T05:19:44;534.40;;;497.85;;
67503;SDS011;54351;49.108;1.502;2022-09-09T05:22:10;368.77;;;344.58;;
67503;SDS011;54351;49.108;1.502;2022-09-09T05:24:39;369.40;;;345.13;;
67503;SDS011;54351;49.108;1.502;2022-09-09T05:27:07;488.83;;;455.50;;
67503;SDS011;54351;49.108;1.502;2022-09-09T05:29:37;417.95;;;390.15;;
67503;SDS011;54351;49.108;1.502;2022-09-09T05:32:03;388.10;;;362.20;;
67503;SDS011;54351;49.108;1.502;2022-09-09T05:34:29;474.45;;;442.90;;
67503;SDS011;54351;49.108;1.502;2022-09-09T05:36:55;441.10;;;411.42;;
67503;SDS011;54351;49.108;1.502;2022-09-09T05:39:21;471.23;;;439.50;;
67503;SDS011;54351;49.108;1.502;2022-09-09T05:41:47;468.35;;;436.60;;
67503;SDS011;54351;49.108;1.502;2022-09-09T05:44:14;500.80;;;466.25;;
67503;SDS011;54351;49.108;1.502;2022-09-09T05:46:40;431.20;;;402.75;;
67503;SDS011;54351;49.108;1.502;2022-09-09T05:49:06;415.70;;;388.42;;
67503;SDS011;54351;49.108;1.502;2022-09-09T05:51:33;490.30;;;457.50;;
67503;SDS011;54351;49.108;1.502;2022-09-09T05:53:59;430.02;;;400.85;;
67503;SDS011;54351;49.108;1.502;2022-09-09T05:56:26;435.58;;;406.25;;
67503;SDS011;54351;49.108;1.502;2022-09-09T05:58:53;286.02;;;267.05;;
67503;SDS011;54351;49.108;1.502;2022-09-09T06:01:24;240.40;;;223.77;;
67503;SDS011;54351;49.108;1.502;2022-09-09T06:03:51;340.40;;;314.98;;
67503;SDS011;54351;49.108;1.502;2022-09-09T06:06:21;325.95;;;301.88;;
67503;SDS011;54351;49.108;1.502;2022-09-09T06:08:48;370.42;;;342.45;;
67503;SDS011;54351;49.108;1.502;2022-09-09T06:13:42;360.58;;;333.65;;
67503;SDS011;54351;49.108;1.502;2022-09-09T06:16:12;387.33;;;357.95;;
67503;SDS011;54351;49.108;1.502;2022-09-09T06:18:43;352.85;;;326.83;;
67503;SDS011;54351;49.108;1.502;2022-09-09T06:21:17;296.10;;;275.50;;
67503;SDS011;54351;49.108;1.502;2022-09-09T06:23:46;318.63;;;295.90;;
67503;SDS011;54351;49.108;1.502;2022-09-09T06:26:17;267.00;;;248.13;;
67503;SDS011;54351;49.108;1.502;2022-09-09T06:28:44;251.43;;;233.90;;
67503;SDS011;54351;49.108;1.502;2022-09-09T06:31:22;247.07;;;230.20;;
67503;SDS011;54351;49.108;1.502;2022-09-09T06:33:49;195.15;;;181.05;;
67503;SDS011;54351;49.108;1.502;2022-09-09T06:47:14;116.43;;;108.32;;
67503;SDS011;54351;49.108;1.502;2022-09-09T06:49:43;125.40;;;116.53;;
67503;SDS011;54351;49.108;1.502;2022-09-09T06:52:31;158.70;;;147.70;;
67503;SDS011;54351;49.108;1.502;2022-09-09T06:55:01;165.65;;;154.25;;
67503;SDS011;54351;49.108;1.502;2022-09-09T06:57:40;131.02;;;122.32;;
67503;SDS011;54351;49.108;1.502;2022-09-09T07:00:18;152.35;;;141.50;;
67503;SDS011;54351;49.108;1.502;2022-09-09T07:03:06;172.65;;;160.93;;
67503;SDS011;54351;49.108;1.502;2022-09-09T07:09:00;153.75;;;143.43;;
67503;SDS011;54351;49.108;1.502;2022-09-09T07:14:24;257.52;;;238.63;;
67503;SDS011;54351;49.108;1.502;2022-09-09T07:16:52;166.77;;;155.30;;
67503;SDS011;54351;49.108;1.502;2022-09-09T07:19:18;193.40;;;179.77;;
67503;SDS011;54351;49.108;1.502;2022-09-09T07:21:44;188.73;;;175.13;;
67503;SDS011;54351;49.108;1.502;2022-09-09T07:24:16;205.55;;;191.00;;
67503;SDS011;54351;49.108;1.502;2022-09-09T07:27:16;261.13;;;242.50;;
67503;SDS011;54351;49.108;1.502;2022-09-09T07:29:54;219.00;;;203.10;;
67503;SDS011;54351;49.108;1.502;2022-09-09T07:32:20;178.60;;;165.90;;
67503;SDS011;54351;49.108;1.502;2022-09-09T07:34:50;150.50;;;139.93;;
67503;SDS011;54351;49.108;1.502;2022-09-09T07:37:16;136.27;;;126.85;;
67503;SDS011;54351;49.108;1.502;2022-09-09T07:39:43;150.35;;;139.27;;
67503;SDS011;54351;49.108;1.502;2022-09-09T07:42:10;251.13;;;232.23;;
67503;SDS011;54351;49.108;1.502;2022-09-09T07:44:36;249.68;;;231.38;;
67503;SDS011;54351;49.108;1.502;2022-09-09T07:47:04;265.83;;;246.90;;
67503;SDS011;54351;49.108;1.502;2022-09-09T07:49:31;202.80;;;187.82;;
67503;SDS011;54351;49.108;1.502;2022-09-09T07:51:57;166.00;;;154.10;;
67503;SDS011;54351;49.108;1.502;2022-09-09T07:54:23;165.20;;;152.77;;
67503;SDS011;54351;49.108;1.502;2022-09-09T07:56:50;165.38;;;153.18;;
67503;SDS011;54351;49.108;1.502;2022-09-09T07:59:16;305.52;;;282.30;;
67503;SDS011;54351;49.108;1.502;2022-09-09T08:01:44;384.45;;;354.30;;
67503;SDS011;54351;49.108;1.502;2022-09-09T08:04:15;376.95;;;347.60;;
67503;SDS011;54351;49.108;1.502;2022-09-09T08:06:43;450.67;;;415.13;;
67503;SDS011;54351;49.108;1.502;2022-09-09T08:09:10;418.75;;;385.73;;
67503;SDS011;54351;49.108;1.502;2022-09-09T08:11:36;426.23;;;392.13;;
67503;SDS011;54351;49.108;1.502;2022-09-09T08:14:08;455.95;;;418.58;;
67503;SDS011;54351;49.108;1.502;2022-09-09T08:16:39;468.58;;;429.42;;
67503;SDS011;54351;49.108;1.502;2022-09-09T08:19:06;431.63;;;397.85;;
67503;SDS011;54351;49.108;1.502;2022-09-09T08:21:33;331.98;;;307.10;;
67503;SDS011;54351;49.108;1.502;2022-09-09T08:24:00;379.02;;;349.50;;
67503;SDS011;54351;49.108;1.502;2022-09-09T08:26:27;440.02;;;405.35;;
67503;SDS011;54351;49.108;1.502;2022-09-09T08:28:55;336.13;;;311.13;;
67503;SDS011;54351;49.108;1.502;2022-09-09T08:31:34;367.15;;;340.00;;
67503;SDS011;54351;49.108;1.502;2022-09-09T08:34:05;345.55;;;320.85;;
67503;SDS011;54351;49.108;1.502;2022-09-09T08:36:47;305.50;;;284.77;;
67503;SDS011;54351;49.108;1.502;2022-09-09T08:39:20;330.23;;;306.13;;
67503;SDS011;54351;49.108;1.502;2022-09-09T08:52:31;356.80;;;329.27;;
67503;SDS011;54351;49.108;1.502;2022-09-09T08:57:52;461.00;;;428.20;;
67503;SDS011;54351;49.108;1.502;2022-09-09T09:00:19;568.05;;;523.35;;
67503;SDS011;54351;49.108;1.502;2022-09-09T09:02:54;522.03;;;483.08;;
67503;SDS011;54351;49.108;1.502;2022-09-09T09:05:33;555.92;;;513.83;;
67503;SDS011;54351;49.108;1.502;2022-09-09T09:10:39;575.42;;;530.35;;
67503;SDS011;54351;49.108;1.502;2022-09-09T09:13:13;594.85;;;548.35;;
67503;SDS011;54351;49.108;1.502;2022-09-09T09:15:39;543.42;;;500.75;;
67503;SDS011;54351;49.108;1.502;2022-09-09T09:18:10;561.13;;;517.05;;
67503;SDS011;54351;49.108;1.502;2022-09-09T09:23:17;351.15;;;323.35;;
67503;SDS011;54351;49.108;1.502;2022-09-09T09:25:45;350.38;;;321.85;;
67503;SDS011;54351;49.108;1.502;2022-09-09T09:28:24;409.30;;;376.98;;
67503;SDS011;54351;49.108;1.502;2022-09-09T09:30:57;433.73;;;399.08;;
67503;SDS011;54351;49.108;1.502;2022-09-09T09:35:52;488.17;;;449.30;;
67503;SDS011;54351;49.108;1.502;2022-09-09T09:38:19;447.02;;;411.38;;
67503;SDS011;54351;49.108;1.502;2022-09-09T09:40:54;569.35;;;522.95;;
67503;SDS011;54351;49.108;1.502;2022-09-09T09:43:32;391.15;;;359.30;;
67503;SDS011;54351;49.108;1.502;2022-09-09T09:46:03;195.75;;;179.23;;
67503;SDS011;54351;49.108;1.502;2022-09-09T09:48:29;205.48;;;188.68;;
67503;SDS011;54351;49.108;1.502;2022-09-09T09:50:56;217.07;;;198.02;;
67503;SDS011;54351;49.108;1.502;2022-09-09T09:53:24;110.10;;;101.10;;
67503;SDS011;54351;49.108;1.502;2022-09-09T09:56:01;180.85;;;163.93;;
67503;SDS011;54351;49.108;1.502;2022-09-09T09:58:27;193.95;;;176.10;;
67503;SDS011;54351;49.108;1.502;2022-09-09T10:00:57;290.27;;;269.27;;
67503;SDS011;54351;49.108;1.502;2022-09-09T10:03:28;277.90;;;257.98;;
67503;SDS011;54351;49.108;1.502;2022-09-09T10:05:57;351.70;;;325.98;;
67503;SDS011;54351;49.108;1.502;2022-09-09T10:08:24;295.30;;;274.05;;
67503;SDS011;54351;49.108;1.502;2022-09-09T10:10:53;307.60;;;285.45;;
67503;SDS011;54351;49.108;1.502;2022-09-09T10:16:00;328.60;;;305.13;;
67503;SDS011;54351;49.108;1.502;2022-09-09T10:18:47;342.90;;;316.55;;
67503;SDS011;54351;49.108;1.502;2022-09-09T10:26:49;349.88;;;324.00;;
67503;SDS011;54351;49.108;1.502;2022-09-09T10:29:26;311.00;;;287.67;;
67503;SDS011;54351;49.108;1.502;2022-09-09T10:34:33;364.95;;;337.73;;
67503;SDS011;54351;49.108;1.502;2022-09-09T10:37:04;406.45;;;376.58;;
67503;SDS011;54351;49.108;1.502;2022-09-09T10:39:37;348.92;;;323.95;;
67503;SDS011;54351;49.108;1.502;2022-09-09T10:42:13;390.00;;;361.23;;
67503;SDS011;54351;49.108;1.502;2022-09-09T10:55:20;515.20;;;476.20;;
67503;SDS011;54351;49.108;1.502;2022-09-09T10:57:51;606.13;;;563.25;;
67503;SDS011;54351;49.108;1.502;2022-09-09T11:00:24;400.65;;;372.33;;
67503;SDS011;54351;49.108;1.502;2022-09-09T11:02:55;379.83;;;348.23;;
67503;SDS011;54351;49.108;1.502;2022-09-09T11:10:40;268.60;;;248.80;;
67503;SDS011;54351;49.108;1.502;2022-09-09T11:13:10;392.50;;;363.33;;
67503;SDS011;54351;49.108;1.502;2022-09-09T11:15:41;411.15;;;380.05;;
67503;SDS011;54351;49.108;1.502;2022-09-09T11:18:13;281.17;;;260.23;;
67503;SDS011;54351;49.108;1.502;2022-09-09T11:20:41;299.00;;;276.38;;
67503;SDS011;54351;49.108;1.502;2022-09-09T11:23:12;304.42;;;280.70;;
67503;SDS011;54351;49.108;1.502;2022-09-09T11:25:40;348.40;;;323.05;;
67503;SDS011;54351;49.108;1.502;2022-09-09T11:33:27;529.40;;;483.75;;
67503;SDS011;54351;49.108;1.502;2022-09-09T11:38:48;491.63;;;451.58;;
67503;SDS011;54351;49.108;1.502;2022-09-09T11:41:22;399.35;;;369.70;;
67503;SDS011;54351;49.108;1.502;2022-09-09T11:43:50;466.40;;;429.10;;
67503;SDS011;54351;49.108;1.502;2022-09-09T11:46:37;427.17;;;394.25;;
67503;SDS011;54351;49.108;1.502;2022-09-09T11:49:21;573.53;;;524.15;;
67503;SDS011;54351;49.108;1.502;2022-09-09T11:53:04;390.58;;;358.17;;
67503;SDS011;54351;49.108;1.502;2022-09-09T11:54:59;602.25;;;557.30;;
67503;SDS011;54351;49.108;1.502;2022-09-09T11:57:34;343.60;;;319.83;;
67503;SDS011;54351;49.108;1.502;2022-09-09T12:00:02;564.53;;;522.72;;
67503;SDS011;54351;49.108;1.502;2022-09-09T12:02:28;490.38;;;456.88;;
67503;SDS011;54351;49.108;1.502;2022-09-09T12:07:46;566.13;;;523.22;;
67503;SDS011;54351;49.108;1.502;2022-09-09T12:10:32;530.65;;;488.10;;
67503;SDS011;54351;49.108;1.502;2022-09-09T12:13:18;584.03;;;537.60;;
67503;SDS011;54351;49.108;1.502;2022-09-09T12:15:48;553.95;;;512.67;;
67503;SDS011;54351;49.108;1.502;2022-09-09T12:18:25;526.75;;;484.67;;
67503;SDS011;54351;49.108;1.502;2022-09-09T12:20:57;440.70;;;405.05;;
67503;SDS011;54351;49.108;1.502;2022-09-09T12:42:47;318.95;;;294.52;;
67503;SDS011;54351;49.108;1.502;2022-09-09T12:45:23;333.55;;;307.55;;
67503;SDS011;54351;49.108;1.502;2022-09-09T12:50:22;275.40;;;254.10;;
67503;SDS011;54351;49.108;1.502;2022-09-09T12:52:56;504.83;;;466.30;;
67503;SDS011;54351;49.108;1.502;2022-09-09T12:55:24;519.30;;;480.48;;
67503;SDS011;54351;49.108;1.502;2022-09-09T12:57:55;537.75;;;500.27;;
67503;SDS011;54351;49.108;1.502;2022-09-09T13:00:24;413.40;;;384.17;;
67503;SDS011;54351;49.108;1.502;2022-09-09T13:02:55;402.05;;;374.05;;
67503;SDS011;54351;49.108;1.502;2022-09-09T13:05:25;459.63;;;428.45;;
67503;SDS011;54351;49.108;1.502;2022-09-09T13:07:51;392.70;;;361.60;;
67503;SDS011;54351;49.108;1.502;2022-09-09T13:10:22;397.33;;;367.50;;
67503;SDS011;54351;49.108;1.502;2022-09-09T13:12:49;328.52;;;303.40;;
67503;SDS011;54351;49.108;1.502;2022-09-09T13:15:24;268.13;;;249.57;;
67503;SDS011;54351;49.108;1.502;2022-09-09T13:17:56;301.67;;;277.42;;
67503;SDS011;54351;49.108;1.502;2022-09-09T13:20:22;366.33;;;340.45;;
67503;SDS011;54351;49.108;1.502;2022-09-09T13:22:50;417.65;;;386.45;;
67503;SDS011;54351;49.108;1.502;2022-09-09T13:25:22;418.38;;;385.77;;
67503;SDS011;54351;49.108;1.502;2022-09-09T13:30:31;302.42;;;279.58;;
67503;SDS011;54351;49.108;1.502;2022-09-09T13:35:49;281.08;;;262.73;;
67503;SDS011;54351;49.108;1.502;2022-09-09T13:38:16;317.77;;;297.80;;
67503;SDS011;54351;49.108;1.502;2022-09-09T13:40:52;421.35;;;388.67;;
67503;SDS011;54351;49.108;1.502;2022-09-09T13:43:21;593.50;;;545.63;;
67503;SDS011;54351;49.108;1.502;2022-09-09T13:46:22;514.78;;;478.48;;
67503;SDS011;54351;49.108;1.502;2022-09-09T13:49:16;573.35;;;528.60;;
67503;SDS011;54351;49.108;1.502;2022-09-09T13:51:47;326.02;;;303.33;;
67503;SDS011;54351;49.108;1.502;2022-09-09T13:54:16;281.05;;;258.30;;
67503;SDS011;54351;49.108;1.502;2022-09-09T13:56:42;387.98;;;361.73;;
67503;SDS011;54351;49.108;1.502;2022-09-09T13:59:10;398.67;;;367.00;;
67503;SDS011;54351;49.108;1.502;2022-09-09T14:01:37;496.67;;;463.13;;
67503;SDS011;54351;49.108;1.502;2022-09-09T14:04:03;390.40;;;358.60;;
67503;SDS011;54351;49.108;1.502;2022-09-09T14:06:31;605.05;;;557.70;;
67503;SDS011;54351;49.108;1.502;2022-09-09T14:08:58;368.15;;;344.35;;
67503;SDS011;54351;49.108;1.502;2022-09-09T14:11:24;375.33;;;344.92;;
67503;SDS011;54351;49.108;1.502;2022-09-09T14:13:50;499.27;;;458.13;;
67503;SDS011;54351;49.108;1.502;2022-09-09T14:16:17;473.98;;;434.45;;
67503;SDS011;54351;49.108;1.502;2022-09-09T14:18:43;461.67;;;422.45;;
67503;SDS011;54351;49.108;1.502;2022-09-09T14:21:10;415.10;;;378.98;;
67503;SDS011;54351;49.108;1.502;2022-09-09T14:23:36;503.20;;;462.67;;
67503;SDS011;54351;49.108;1.502;2022-09-09T14:26:03;410.58;;;380.17;;
67503;SDS011;54351;49.108;1.502;2022-09-09T14:28:29;501.00;;;461.40;;
67503;SDS011;54351;49.108;1.502;2022-09-09T14:30:58;438.33;;;405.48;;
67503;SDS011;54351;49.108;1.502;2022-09-09T14:33:24;420.55;;;389.27;;
67503;SDS011;54351;49.108;1.502;2022-09-09T14:35:55;383.95;;;357.05;;
67503;SDS011;54351;49.108;1.502;2022-09-09T14:38:21;326.25;;;304.27;;
67503;SDS011;54351;49.108;1.502;2022-09-09T14:40:47;345.27;;;321.85;;
67503;SDS011;54351;49.108;1.502;2022-09-09T14:43:13;349.17;;;325.38;;
67503;SDS011;54351;49.108;1.502;2022-09-09T14:45:39;564.22;;;517.75;;
67503;SDS011;54351;49.108;1.502;2022-09-09T14:48:05;493.42;;;452.80;;
67503;SDS011;54351;49.108;1.502;2022-09-09T14:50:32;524.92;;;481.92;;
67503;SDS011;54351;49.108;1.502;2022-09-09T14:52:59;479.85;;;442.10;;
67503;SDS011;54351;49.108;1.502;2022-09-09T14:55:25;387.60;;;360.05;;
67503;SDS011;54351;49.108;1.502;2022-09-09T14:57:53;354.52;;;322.75;;
67503;SDS011;54351;49.108;1.502;2022-09-09T15:00:19;422.60;;;390.10;;
67503;SDS011;54351;49.108;1.502;2022-09-09T15:02:45;451.55;;;416.75;;
67503;SDS011;54351;49.108;1.502;2022-09-09T15:05:11;319.17;;;296.98;;
67503;SDS011;54351;49.108;1.502;2022-09-09T15:07:37;346.52;;;322.65;;
67503;SDS011;54351;49.108;1.502;2022-09-09T15:10:04;403.27;;;367.88;;
67503;SDS011;54351;49.108;1.502;2022-09-09T15:12:31;259.58;;;240.85;;
67503;SDS011;54351;49.108;1.502;2022-09-09T15:14:58;394.92;;;370.45;;
67503;SDS011;54351;49.108;1.502;2022-09-09T15:17:24;585.65;;;539.65;;
67503;SDS011;54351;49.108;1.502;2022-09-09T15:19:52;526.00;;;487.73;;
67503;SDS011;54351;49.108;1.502;2022-09-09T15:22:19;457.70;;;421.13;;
67503;SDS011;54351;49.108;1.502;2022-09-09T15:24:45;328.02;;;300.75;;
67503;SDS011;54351;49.108;1.502;2022-09-09T15:27:12;474.67;;;436.77;;
67503;SDS011;54351;49.108;1.502;2022-09-09T15:29:39;473.73;;;434.92;;
67503;SDS011;54351;49.108;1.502;2022-09-09T15:32:06;421.55;;;385.48;;
67503;SDS011;54351;49.108;1.502;2022-09-09T15:34:32;497.33;;;457.30;;
67503;SDS011;54351;49.108;1.502;2022-09-09T15:36:58;555.38;;;515.92;;
67503;SDS011;54351;49.108;1.502;2022-09-09T15:39:25;374.55;;;350.33;;
67503;SDS011;54351;49.108;1.502;2022-09-09T15:41:51;380.73;;;349.13;;
67503;SDS011;54351;49.108;1.502;2022-09-09T15:44:17;397.45;;;371.42;;
67503;SDS011;54351;49.108;1.502;2022-09-09T15:46:50;443.58;;;408.33;;
67503;SDS011;54351;49.108;1.502;2022-09-09T15:49:22;362.42;;;334.23;;
67503;SDS011;54351;49.108;1.502;2022-09-09T15:51:54;362.13;;;338.63;;
67503;SDS011;54351;49.108;1.502;2022-09-09T15:54:22;489.08;;;456.48;;
67503;SDS011;54351;49.108;1.502;2022-09-09T15:56:53;439.38;;;405.73;;
67503;SDS011;54351;49.108;1.502;2022-09-09T15:59:20;436.77;;;398.73;;
67503;SDS011;54351;49.108;1.502;2022-09-09T16:01:47;373.27;;;349.13;;
67503;SDS011;54351;49.108;1.502;2022-09-09T16:04:16;611.03;;;564.83;;
67503;SDS011;54351;49.108;1.502;2022-09-09T16:09:17;568.10;;;522.88;;
67503;SDS011;54351;49.108;1.502;2022-09-09T16:11:43;543.47;;;500.92;;
67503;SDS011;54351;49.108;1.502;2022-09-09T16:14:09;580.22;;;535.97;;
67503;SDS011;54351;49.108;1.502;2022-09-09T16:16:36;466.27;;;432.48;;
67503;SDS011;54351;49.108;1.502;2022-09-09T16:19:06;560.60;;;518.08;;
67503;SDS011;54351;49.108;1.502;2022-09-09T16:21:35;507.55;;;469.38;;
67503;SDS011;54351;49.108;1.502;2022-09-09T16:24:02;540.67;;;500.17;;
67503;SDS011;54351;49.108;1.502;2022-09-09T16:26:30;537.25;;;494.30;;
67503;SDS011;54351;49.108;1.502;2022-09-09T16:28:56;526.25;;;485.10;;
67503;SDS011;54351;49.108;1.502;2022-09-09T16:31:27;494.90;;;455.73;;
67503;SDS011;54351;49.108;1.502;2022-09-09T16:33:53;273.83;;;251.52;;